createdAt,value
2022-10-19T00:01:38.892Z,8.27
2022-10-19T00:04:08.664Z,7.82
2022-10-19T00:06:36.670Z,7.28
2022-10-19T00:09:08.520Z,8.77
2022-10-19T00:11:37.069Z,9.13
2022-10-19T00:14:04.718Z,8.68
2022-10-19T00:16:34.168Z,9.18
2022-10-19T00:19:04.283Z,8.52
2022-10-19T00:21:31.065Z,9.40
2022-10-19T00:23:57.843Z,10.15
2022-10-19T00:26:26.079Z,10.20
2022-10-19T00:28:56.573Z,10.77
2022-10-19T00:31:23.847Z,11.55
2022-10-19T00:33:50.603Z,12.23
2022-10-19T00:36:42.119Z,11.63
2022-10-19T00:39:12.869Z,11.18
2022-10-19T00:41:40.099Z,11.65
2022-10-19T00:44:29.534Z,11.90
2022-10-19T00:47:05.362Z,11.30
2022-10-19T00:49:39.551Z,12.05
2022-10-19T00:52:14.283Z,11.35
2022-10-19T00:54:42.715Z,10.70
2022-10-19T00:57:09.978Z,10.13
2022-10-19T00:59:37.084Z,9.48
2022-10-19T01:02:05.762Z,9.85
2022-10-19T01:04:35.472Z,8.70
2022-10-19T01:07:04.007Z,9.32
2022-10-19T01:09:30.639Z,9.93
2022-10-19T01:12:08.154Z,9.23
2022-10-19T01:14:50.163Z,10.85
2022-10-19T01:17:39.059Z,10.77
2022-10-19T01:20:30.782Z,10.30
2022-10-19T01:23:29.315Z,9.23
2022-10-19T01:26:03.152Z,10.10
2022-10-19T01:29:08.683Z,9.57
2022-10-19T01:31:44.543Z,8.73
2022-10-19T01:34:21.361Z,8.75
2022-10-19T01:37:00.753Z,8.15
2022-10-19T01:39:36.270Z,8.40
2022-10-19T01:42:16.829Z,8.60
2022-10-19T01:44:49.186Z,8.70
2022-10-19T01:47:20.021Z,9.95
2022-10-19T01:50:03.491Z,9.50
2022-10-19T01:52:31.576Z,9.93
2022-10-19T01:54:59.907Z,10.00
2022-10-19T01:57:34.982Z,10.75
2022-10-19T02:00:07.514Z,10.93
2022-10-19T02:02:46.637Z,10.02
2022-10-19T02:05:14.419Z,11.55
2022-10-19T02:07:45.313Z,11.18
2022-10-19T02:10:11.979Z,10.10
2022-10-19T02:12:39.265Z,11.93
2022-10-19T02:15:11.239Z,11.30
2022-10-19T02:17:45.780Z,11.18
2022-10-19T02:20:13.272Z,11.38
2022-10-19T02:22:40.481Z,10.57
2022-10-19T02:25:07.827Z,10.27
2022-10-19T02:27:35.070Z,11.15
2022-10-19T02:30:01.943Z,11.10
2022-10-19T02:32:28.621Z,10.98
2022-10-19T02:34:55.321Z,10.63
2022-10-19T02:37:23.433Z,10.60
2022-10-19T02:39:52.339Z,10.20
2022-10-19T02:42:23.526Z,9.57
2022-10-19T02:44:57.519Z,9.00
2022-10-19T02:47:33.920Z,9.05
2022-10-19T02:50:01.429Z,9.88
2022-10-19T02:52:28.362Z,9.52
2022-10-19T02:54:55.044Z,9.73
2022-10-19T02:57:24.080Z,9.68
2022-10-19T02:59:51.736Z,10.20
2022-10-19T03:02:19.941Z,8.98
2022-10-19T03:07:34.602Z,9.90
2022-10-19T03:10:01.720Z,10.30
2022-10-19T03:12:28.625Z,9.35
2022-10-19T03:14:55.441Z,10.25
2022-10-19T03:17:22.171Z,10.55
2022-10-19T03:19:48.774Z,11.60
2022-10-19T03:22:15.821Z,11.40
2022-10-19T03:24:42.497Z,10.65
2022-10-19T03:27:09.241Z,11.88
2022-10-19T03:29:36.283Z,10.73
2022-10-19T03:32:02.913Z,12.30
2022-10-19T03:34:29.499Z,11.57
2022-10-19T03:36:56.851Z,11.80
2022-10-19T03:39:23.555Z,10.65
2022-10-19T03:41:50.162Z,12.50
2022-10-19T03:44:16.807Z,12.57
2022-10-19T03:46:43.623Z,13.32
2022-10-19T03:49:15.674Z,13.43
2022-10-19T03:51:42.409Z,13.25
2022-10-19T03:54:13.030Z,14.55
2022-10-19T03:56:39.631Z,12.82
2022-10-19T03:59:07.020Z,13.85
2022-10-19T04:01:38.912Z,14.35
2022-10-19T04:04:09.032Z,12.95
2022-10-19T04:06:38.135Z,12.20
2022-10-19T04:09:06.704Z,13.02
2022-10-19T04:11:34.256Z,10.52
2022-10-19T04:14:01.768Z,11.23
2022-10-19T04:16:30.533Z,10.23
2022-10-19T04:18:57.983Z,11.75
2022-10-19T04:21:35.547Z,11.27
2022-10-19T04:24:03.713Z,10.75
2022-10-19T04:26:30.699Z,10.32
2022-10-19T04:28:58.884Z,8.95
2022-10-19T04:31:26.440Z,9.45
2022-10-19T04:33:53.244Z,9.13
2022-10-19T04:36:19.899Z,10.80
2022-10-19T04:38:46.595Z,10.68
2022-10-19T04:41:16.345Z,10.30
2022-10-19T04:43:45.379Z,9.85
2022-10-19T04:46:14.339Z,10.02
2022-10-19T04:48:41.653Z,11.45
2022-10-19T04:51:09.356Z,10.75
2022-10-19T04:53:37.844Z,12.02
2022-10-19T04:56:06.499Z,11.95
2022-10-19T04:58:33.368Z,12.13
2022-10-19T05:01:00.388Z,10.73
2022-10-19T05:03:27.173Z,10.52
2022-10-19T05:05:54.029Z,12.02
2022-10-19T05:08:20.620Z,11.73
2022-10-19T05:10:47.830Z,12.00
2022-10-19T05:13:14.607Z,11.63
2022-10-19T05:15:41.279Z,10.82
2022-10-19T05:18:07.922Z,11.52
2022-10-19T05:20:34.590Z,10.57
2022-10-19T05:23:06.158Z,10.65
2022-10-19T05:25:34.030Z,10.82
2022-10-19T05:28:00.706Z,10.85
2022-10-19T05:30:27.665Z,10.50
2022-10-19T05:32:54.301Z,9.15
2022-10-19T05:35:22.658Z,8.63
2022-10-19T05:37:54.427Z,7.57
2022-10-19T05:40:21.278Z,7.43
2022-10-19T05:42:47.921Z,8.20
2022-10-19T05:45:14.657Z,8.30
2022-10-19T05:47:41.286Z,7.32
2022-10-19T05:50:08.265Z,7.18
2022-10-19T05:52:34.885Z,8.20
2022-10-19T05:55:01.505Z,8.63
2022-10-19T05:57:28.176Z,8.30
2022-10-19T05:59:56.790Z,7.82
2022-10-19T06:02:23.772Z,10.25
2022-10-19T06:04:50.483Z,9.73
2022-10-19T06:07:17.152Z,9.25
2022-10-19T06:09:43.867Z,8.65
2022-10-19T06:12:10.560Z,9.02
2022-10-19T06:14:37.274Z,8.55
2022-10-19T06:17:04.068Z,9.73
2022-10-19T06:19:30.880Z,9.18
2022-10-19T06:21:57.509Z,8.75
2022-10-19T06:24:24.276Z,9.95
2022-10-19T06:26:50.874Z,9.65
2022-10-19T06:29:17.657Z,10.32
2022-10-19T06:31:45.705Z,11.30
2022-10-19T06:34:12.464Z,10.18
2022-10-19T06:36:39.144Z,9.43
2022-10-19T06:39:05.769Z,10.23
2022-10-19T06:41:32.683Z,10.18
2022-10-19T06:44:16.109Z,10.45
2022-10-19T06:46:42.731Z,9.98
2022-10-19T06:49:12.624Z,11.25
2022-10-19T06:51:40.702Z,10.35
2022-10-19T06:54:07.521Z,10.23
2022-10-19T06:56:34.666Z,11.05
2022-10-19T06:59:01.286Z,11.38
2022-10-19T07:01:28.316Z,11.93
2022-10-19T07:03:55.426Z,11.68
2022-10-19T07:06:22.209Z,11.82
2022-10-19T07:08:49.132Z,13.13
2022-10-19T07:11:18.588Z,12.13
2022-10-19T07:13:45.241Z,12.60
2022-10-19T07:16:17.904Z,12.52
2022-10-19T07:18:47.948Z,12.82
2022-10-19T07:21:16.300Z,12.18
2022-10-19T07:23:44.467Z,13.70
2022-10-19T07:26:16.087Z,13.27
2022-10-19T07:28:44.660Z,13.03
2022-10-19T07:31:13.628Z,12.77
2022-10-19T07:33:40.262Z,11.75
2022-10-19T07:36:08.703Z,12.10
2022-10-19T07:38:35.731Z,12.52
2022-10-19T07:41:07.667Z,12.32
2022-10-19T07:43:34.905Z,11.52
2022-10-19T07:46:03.634Z,11.98
2022-10-19T07:48:30.836Z,12.68
2022-10-19T07:50:57.636Z,12.38
2022-10-19T07:53:24.601Z,12.13
2022-10-19T07:55:51.276Z,11.38
2022-10-19T07:58:17.878Z,10.43
2022-10-19T08:00:44.667Z,10.40
2022-10-19T08:03:43.609Z,11.15
2022-10-19T08:06:02.391Z,10.60
2022-10-19T08:08:29.383Z,10.38
2022-10-19T08:10:56.320Z,10.05
2022-10-19T08:13:23.515Z,9.10
2022-10-19T08:15:50.400Z,9.57
2022-10-19T08:18:18.455Z,8.88
2022-10-19T08:20:45.137Z,9.32
2022-10-19T08:23:11.817Z,9.25
2022-10-19T08:25:38.536Z,9.23
2022-10-19T08:28:05.235Z,9.40
2022-10-19T08:30:32.144Z,9.60
2022-10-19T08:32:58.757Z,9.30
2022-10-19T08:35:25.751Z,8.75
2022-10-19T08:37:52.772Z,8.77
2022-10-19T08:40:23.679Z,8.50
2022-10-19T08:43:00.648Z,8.35
2022-10-19T08:45:39.339Z,8.43
2022-10-19T08:48:29.507Z,8.50
2022-10-19T08:50:57.327Z,6.97
2022-10-19T08:53:32.472Z,7.05
2022-10-19T08:56:39.044Z,6.90
2022-10-19T08:59:11.320Z,6.43
2022-10-19T09:01:50.110Z,7.03
2022-10-19T09:04:26.592Z,6.88
2022-10-19T09:07:16.814Z,6.05
2022-10-19T09:12:41.145Z,5.85
2022-10-19T09:15:13.380Z,4.40
2022-10-19T09:17:40.054Z,4.38
2022-10-19T09:20:22.122Z,3.83
2022-10-19T09:22:58.788Z,3.75
2022-10-19T09:25:25.774Z,3.47
2022-10-19T09:28:10.679Z,3.90
2022-10-19T09:30:38.110Z,3.30
2022-10-19T09:33:06.234Z,3.45
2022-10-19T09:35:36.841Z,3.00
2022-10-19T09:38:05.353Z,3.20
2022-10-19T09:40:32.134Z,3.38
2022-10-19T09:42:59.523Z,3.47
2022-10-19T09:45:45.899Z,3.33
2022-10-19T09:48:23.834Z,3.55
2022-10-19T09:50:59.701Z,2.70
2022-10-19T09:53:27.179Z,3.28
2022-10-19T09:56:19.006Z,2.60
2022-10-19T09:58:50.643Z,3.47
2022-10-19T10:01:41.831Z,2.47
2022-10-19T10:04:18.731Z,2.75
2022-10-19T10:06:48.292Z,3.22
2022-10-19T10:09:37.990Z,2.42
2022-10-19T10:12:04.786Z,2.92
2022-10-19T10:14:33.803Z,2.92
2022-10-19T10:17:16.352Z,3.00
2022-10-19T10:20:00.287Z,2.55
2022-10-19T10:22:37.777Z,3.40
2022-10-19T10:25:18.222Z,3.55
2022-10-19T10:28:12.692Z,2.50
2022-10-19T10:30:39.337Z,2.83
2022-10-19T10:33:15.855Z,2.80
2022-10-19T10:35:55.960Z,3.17
2022-10-19T10:38:26.713Z,2.47
2022-10-19T10:41:08.338Z,2.53
2022-10-19T10:43:36.863Z,2.42
2022-10-19T10:46:08.612Z,2.72
2022-10-19T10:48:42.521Z,2.85
2022-10-19T10:51:25.358Z,2.42
2022-10-19T10:53:52.104Z,3.45
2022-10-19T10:56:23.880Z,4.00
2022-10-19T10:58:56.540Z,3.60
2022-10-19T11:01:24.484Z,3.65
2022-10-19T11:03:56.327Z,3.47
2022-10-19T11:06:25.653Z,3.63
2022-10-19T11:09:16.011Z,3.40
2022-10-19T11:11:45.433Z,3.75
2022-10-19T11:14:37.556Z,3.60
2022-10-19T11:17:07.147Z,3.13
2022-10-19T11:19:44.532Z,4.03
2022-10-19T11:22:32.163Z,3.80
2022-10-19T11:25:17.856Z,3.10
2022-10-19T11:28:06.400Z,3.65
2022-10-19T11:30:42.827Z,2.85
2022-10-19T11:33:25.165Z,2.75
2022-10-19T11:35:54.414Z,3.35
2022-10-19T11:38:39.857Z,2.83
2022-10-19T11:41:18.294Z,2.92
2022-10-19T11:44:10.402Z,3.25
2022-10-19T11:46:45.717Z,2.90
2022-10-19T11:49:38.490Z,2.40
2022-10-19T11:52:50.281Z,2.85
2022-10-19T11:55:38.104Z,3.10
2022-10-19T11:58:19.881Z,2.97
2022-10-19T12:01:09.738Z,2.80
2022-10-19T12:04:00.052Z,3.10
2022-10-19T12:06:45.348Z,2.83
2022-10-19T12:09:28.248Z,3.40
2022-10-19T12:12:16.947Z,3.05
2022-10-19T12:14:46.926Z,3.00
2022-10-19T12:17:31.557Z,2.90
2022-10-19T12:20:17.540Z,2.90
2022-10-19T12:22:46.431Z,3.33
2022-10-19T12:25:14.781Z,3.58
2022-10-19T12:27:41.994Z,3.50
2022-10-19T12:30:29.100Z,3.35
2022-10-19T12:33:03.708Z,4.40
2022-10-19T12:35:30.296Z,3.90
2022-10-19T12:38:18.858Z,3.38
2022-10-19T12:41:00.722Z,3.75
2022-10-19T12:43:44.052Z,3.72
2022-10-19T12:46:41.700Z,4.00
2022-10-19T12:49:36.405Z,4.15
2022-10-19T12:52:03.787Z,3.40
2022-10-19T12:54:34.778Z,3.65
2022-10-19T12:57:04.103Z,3.83
2022-10-19T12:59:35.732Z,3.30
2022-10-19T13:02:05.673Z,4.10
2022-10-19T13:14:04.889Z,3.22
2022-10-19T13:16:32.629Z,3.08
2022-10-19T13:18:59.215Z,2.97
2022-10-19T13:21:44.897Z,3.60
2022-10-19T13:24:23.737Z,3.72
2022-10-19T13:27:02.375Z,3.65
2022-10-19T13:29:39.120Z,3.10
2022-10-19T13:32:30.959Z,3.10
2022-10-19T13:35:26.333Z,3.35
2022-10-19T13:38:11.986Z,2.90
2022-10-19T13:40:42.039Z,2.90
2022-10-19T13:43:19.241Z,2.97
2022-10-19T13:46:15.853Z,2.85
2022-10-19T13:49:01.514Z,2.78
2022-10-19T13:51:43.688Z,2.92
2022-10-19T13:54:16.369Z,2.90
2022-10-19T13:56:59.141Z,2.72
2022-10-19T13:59:49.388Z,2.05
2022-10-19T14:02:23.769Z,2.40
2022-10-19T14:05:21.756Z,2.60
2022-10-19T14:07:51.535Z,2.70
2022-10-19T14:10:21.013Z,2.53
2022-10-19T14:12:48.933Z,2.97
2022-10-19T14:15:18.569Z,2.88
2022-10-19T14:17:45.895Z,2.45
2022-10-19T14:20:24.707Z,2.70
2022-10-19T14:22:52.149Z,2.78
2022-10-19T14:25:21.783Z,3.25
2022-10-19T14:27:59.466Z,3.38
2022-10-19T14:30:34.799Z,2.60
2022-10-19T14:33:07.669Z,3.20
2022-10-19T14:35:37.457Z,2.75
2022-10-19T14:38:06.132Z,3.08
2022-10-19T14:40:34.755Z,3.70
2022-10-19T14:43:01.622Z,3.13
2022-10-19T14:45:32.713Z,3.28
2022-10-19T14:48:07.010Z,3.30
2022-10-19T14:50:43.381Z,3.13
2022-10-19T14:53:20.340Z,3.25
2022-10-19T14:55:48.033Z,3.10
2022-10-19T14:58:18.751Z,2.95
2022-10-19T15:00:47.177Z,3.35
2022-10-19T15:03:20.933Z,3.45
2022-10-19T15:05:49.355Z,3.42
2022-10-19T15:08:31.007Z,2.72
2022-10-19T15:10:57.821Z,3.23
2022-10-19T15:13:27.922Z,3.25
2022-10-19T15:15:55.185Z,3.42
2022-10-19T15:18:47.616Z,4.13
2022-10-19T15:21:18.970Z,2.80
2022-10-19T15:23:50.086Z,3.53
2022-10-19T15:26:25.886Z,3.38
2022-10-19T15:28:54.095Z,3.20
2022-10-19T15:31:25.646Z,3.80
2022-10-19T15:33:54.573Z,3.23
2022-10-19T15:36:22.590Z,3.50
2022-10-19T15:39:06.374Z,3.83
2022-10-19T15:41:44.980Z,4.07
2022-10-19T15:44:49.017Z,3.60
2022-10-19T15:47:15.717Z,3.78
2022-10-19T15:49:42.620Z,4.60
2022-10-19T15:52:22.806Z,4.05
2022-10-19T15:54:50.880Z,4.10
2022-10-19T15:57:31.573Z,3.80
2022-10-19T16:00:00.564Z,3.85
2022-10-19T16:02:27.227Z,4.63
2022-10-19T16:04:54.450Z,4.70
2022-10-19T16:07:26.936Z,4.70
2022-10-19T16:09:54.488Z,4.88
2022-10-19T16:12:22.225Z,5.30
2022-10-19T16:14:48.816Z,4.30
2022-10-19T16:17:15.947Z,5.03
2022-10-19T16:19:42.933Z,5.35
2022-10-19T16:22:09.759Z,5.22
2022-10-19T16:24:36.405Z,4.18
2022-10-19T16:27:03.123Z,5.32
2022-10-19T16:29:29.797Z,5.93
2022-10-19T16:31:56.392Z,5.60
2022-10-19T16:34:23.092Z,5.55
2022-10-19T16:36:49.790Z,6.43
2022-10-19T16:39:16.555Z,5.80
2022-10-19T16:41:44.317Z,6.63
2022-10-19T16:44:12.518Z,6.97
2022-10-19T16:46:39.605Z,6.47
2022-10-19T16:49:06.331Z,6.57
2022-10-19T16:51:42.647Z,6.10
2022-10-19T16:54:11.361Z,6.10
2022-10-19T16:56:45.905Z,6.55
2022-10-19T16:59:14.966Z,6.45
2022-10-19T17:01:42.330Z,6.50
2022-10-19T17:04:09.095Z,6.35
2022-10-19T17:06:35.800Z,6.32
2022-10-19T17:11:49.977Z,7.22
2022-10-19T17:14:16.566Z,7.47
2022-10-19T17:16:43.294Z,8.32
2022-10-19T17:19:10.518Z,8.95
2022-10-19T17:21:38.649Z,9.23
2022-10-19T17:24:07.768Z,7.82
2022-10-19T17:26:40.265Z,7.43
2022-10-19T17:31:34.139Z,7.35
2022-10-19T17:34:01.966Z,7.32
2022-10-19T17:36:30.870Z,7.78
2022-10-19T17:39:00.021Z,8.05
2022-10-19T17:41:27.675Z,7.13
2022-10-19T17:43:55.018Z,8.75
2022-10-19T17:46:24.331Z,9.57
2022-10-19T17:48:51.175Z,9.25
2022-10-19T17:51:20.419Z,8.75
2022-10-19T17:53:48.402Z,8.73
2022-10-19T17:56:20.011Z,8.77
2022-10-19T17:58:46.926Z,8.95
2022-10-19T18:01:14.492Z,8.75
2022-10-19T18:03:41.473Z,10.60
2022-10-19T18:06:18.761Z,9.95
2022-10-19T18:08:49.105Z,10.02
2022-10-19T18:11:24.856Z,10.52
2022-10-19T18:13:52.703Z,9.48
2022-10-19T18:16:25.500Z,9.73
2022-10-19T18:18:54.981Z,9.05
2022-10-19T18:21:25.875Z,9.27
2022-10-19T18:23:53.666Z,10.90
2022-10-19T18:26:22.363Z,11.50
2022-10-19T18:28:50.292Z,10.18
2022-10-19T18:31:22.300Z,11.43
2022-10-19T18:33:50.780Z,12.93
2022-10-19T18:36:17.383Z,11.18
2022-10-19T18:38:44.111Z,9.68
2022-10-19T18:44:02.015Z,9.23
2022-10-19T18:46:29.085Z,8.55
2022-10-19T18:48:55.701Z,9.40
2022-10-19T18:51:23.686Z,9.65
2022-10-19T18:53:50.679Z,8.88
2022-10-19T18:56:19.676Z,9.18
2022-10-19T18:58:46.949Z,8.88
2022-10-19T19:01:13.566Z,9.55
2022-10-19T19:03:42.628Z,10.40
2022-10-19T19:06:14.670Z,9.90
2022-10-19T19:08:41.503Z,9.35
2022-10-19T19:11:10.450Z,8.80
2022-10-19T19:13:37.615Z,9.73
2022-10-19T19:16:04.829Z,9.27
2022-10-19T19:18:33.811Z,10.23
2022-10-19T19:21:02.141Z,8.40
2022-10-19T19:23:30.293Z,9.40
2022-10-19T19:25:57.446Z,9.30
2022-10-19T19:28:24.128Z,9.18
2022-10-19T19:30:50.840Z,9.00
2022-10-19T19:33:17.601Z,9.40
2022-10-19T19:35:48.233Z,9.13
2022-10-19T19:38:15.547Z,8.88
2022-10-19T19:40:43.745Z,9.90
2022-10-19T19:43:11.014Z,8.32
2022-10-19T19:45:38.188Z,10.48
2022-10-19T19:48:06.004Z,10.20
2022-10-19T19:50:33.407Z,9.63
2022-10-19T19:53:00.793Z,8.77
2022-10-19T19:55:28.505Z,9.68
2022-10-19T19:57:55.399Z,9.02
2022-10-19T20:00:23.411Z,9.32
2022-10-19T20:02:54.328Z,9.45
2022-10-19T20:05:21.119Z,9.15
2022-10-19T20:07:48.050Z,10.10
2022-10-19T20:10:18.138Z,11.20
2022-10-19T20:12:45.928Z,9.40
2022-10-19T20:15:14.200Z,9.13
2022-10-19T20:17:41.145Z,9.70
2022-10-19T20:20:09.797Z,9.35
2022-10-19T20:22:37.073Z,9.52
2022-10-19T20:25:04.534Z,9.55
2022-10-19T20:27:35.036Z,9.48
2022-10-19T20:30:01.921Z,9.25
2022-10-19T20:32:29.002Z,8.60
2022-10-19T20:34:55.690Z,9.23
2022-10-19T20:37:22.305Z,9.50
2022-10-19T20:39:49.293Z,9.50
2022-10-19T20:42:17.773Z,9.75
2022-10-19T20:44:44.842Z,9.07
2022-10-19T20:47:11.819Z,8.70
2022-10-19T20:49:40.801Z,9.18
2022-10-19T20:52:07.807Z,9.07
2022-10-19T20:54:35.797Z,9.05
2022-10-19T20:57:02.431Z,9.93
2022-10-19T20:59:30.412Z,10.38
2022-10-19T21:01:57.952Z,9.95
2022-10-19T21:04:25.706Z,10.55
2022-10-19T21:06:52.588Z,10.20
2022-10-19T21:09:21.721Z,9.73
2022-10-19T21:11:50.276Z,11.05
2022-10-19T21:14:25.296Z,9.65
2022-10-19T21:16:56.610Z,9.65
2022-10-19T21:19:25.528Z,10.63
2022-10-19T21:21:57.076Z,11.35
2022-10-19T21:24:26.133Z,10.73
2022-10-19T21:26:52.995Z,11.57
2022-10-19T21:29:19.666Z,10.68
2022-10-19T21:31:49.113Z,10.27
2022-10-19T21:34:24.881Z,10.32
2022-10-19T21:36:51.589Z,10.75
2022-10-19T21:39:18.743Z,11.27
2022-10-19T21:41:46.501Z,10.68
2022-10-19T21:44:14.332Z,9.88
2022-10-19T21:46:43.009Z,10.43
2022-10-19T21:49:12.887Z,10.63
2022-10-19T21:51:42.960Z,11.10
2022-10-19T21:54:13.332Z,10.25
2022-10-19T21:56:40.320Z,11.18
2022-10-19T21:59:07.004Z,10.48
2022-10-19T22:01:38.563Z,10.65
2022-10-19T22:04:12.157Z,10.55
2022-10-19T22:06:38.922Z,10.80
2022-10-19T22:09:07.084Z,11.55
2022-10-19T22:11:34.332Z,10.27
2022-10-19T22:14:02.765Z,10.00
2022-10-19T22:16:29.909Z,11.70
2022-10-19T22:18:57.054Z,11.55
2022-10-19T22:21:26.944Z,11.00
2022-10-19T22:23:59.144Z,11.00
2022-10-19T22:26:31.566Z,11.68
2022-10-19T22:28:59.634Z,11.55
2022-10-19T22:31:27.245Z,10.60
2022-10-19T22:33:54.145Z,11.65
2022-10-19T22:36:21.004Z,11.30
2022-10-19T22:38:47.868Z,11.05
2022-10-19T22:41:14.542Z,10.93
2022-10-19T22:43:41.172Z,10.70
2022-10-19T22:46:07.866Z,11.20
2022-10-19T22:48:34.470Z,10.93
2022-10-19T22:51:01.099Z,11.43
2022-10-19T22:53:27.776Z,10.27
2022-10-19T22:55:54.333Z,10.30
2022-10-19T22:58:21.015Z,11.13
2022-10-19T23:01:18.617Z,10.82
2022-10-19T23:03:45.448Z,11.10
2022-10-19T23:06:13.743Z,11.20
2022-10-19T23:08:40.347Z,10.80
2022-10-19T23:11:07.044Z,11.20
2022-10-19T23:13:33.719Z,10.35
2022-10-19T23:16:00.412Z,10.80
2022-10-19T23:18:26.999Z,11.32
2022-10-19T23:21:01.031Z,10.38
2022-10-19T23:23:29.105Z,11.32
2022-10-19T23:26:00.802Z,11.48
2022-10-19T23:28:28.269Z,10.32
2022-10-19T23:30:57.258Z,10.32
2022-10-19T23:33:24.393Z,10.40
2022-10-19T23:35:51.071Z,10.38
2022-10-19T23:38:18.041Z,10.85
2022-10-19T23:40:44.890Z,10.60
2022-10-19T23:43:11.783Z,10.50
2022-10-19T23:45:41.516Z,10.55
2022-10-19T23:48:08.207Z,11.20
2022-10-19T23:50:34.948Z,9.13
2022-10-19T23:53:01.629Z,10.80
2022-10-19T23:55:28.419Z,10.13
2022-10-19T23:57:55.033Z,10.73
